Time;durP1;ratioP1;P1;durP2;ratioP2;P2;SDS_P1;SDS_P2;PMS_P1;PMS_P2;Temp;Humidity;BMP_temperature;BMP_pressure;BME280_temperature;BME280_humidity;BME280_pressure;Samples;Min_cycle;Max_cycle;Signal;HPM_P1;HPM_P2
2022/03/14 00:00:11;;;;;;;7.47;5.20;;;7.50;99.90;;;;;;4993716;28;20661;-45
2022/03/14 00:02:38;;;;;;;9.87;5.20;;;7.40;99.90;;;;;;5001854;28;20574;-45
2022/03/14 00:05:06;;;;;;;7.70;5.20;;;7.50;99.90;;;;;;5004457;28;20264;-45
2022/03/14 00:07:36;;;;;;;7.47;5.50;;;7.40;99.90;;;;;;4995230;28;20209;-45
2022/03/14 00:10:03;;;;;;;5.73;4.93;;;7.40;99.90;;;;;;5006965;28;20202;-45
2022/03/14 00:12:32;;;;;;;5.90;4.70;;;7.40;99.90;;;;;;5007460;28;20302;-44
2022/03/14 00:15:00;;;;;;;5.80;4.77;;;7.40;99.90;;;;;;4987599;28;20597;-45
2022/03/14 00:17:28;;;;;;;10.63;5.33;;;7.40;99.90;;;;;;5005329;28;20217;-45
2022/03/14 00:19:59;;;;;;;7.13;4.77;;;7.30;99.90;;;;;;4996496;28;21006;-45
2022/03/14 00:22:27;;;;;;;8.93;5.43;;;7.30;99.90;;;;;;5007844;28;20591;-44
2022/03/14 00:24:54;;;;;;;6.13;4.73;;;7.30;99.90;;;;;;5003406;28;20260;-45
2022/03/14 00:27:21;;;;;;;7.83;5.43;;;7.30;99.90;;;;;;5008782;28;20529;-44
2022/03/14 00:29:49;;;;;;;8.50;5.70;;;7.30;99.90;;;;;;4991674;28;20449;-45
2022/03/14 00:32:16;;;;;;;8.67;5.23;;;7.30;99.90;;;;;;4998869;28;20239;-45
2022/03/14 00:34:43;;;;;;;6.30;5.17;;;7.30;99.90;;;;;;5003579;28;20285;-45
2022/03/14 00:37:10;;;;;;;7.10;5.00;;;7.20;99.90;;;;;;5003712;28;20629;-45
2022/03/14 00:39:37;;;;;;;7.50;5.57;;;7.20;99.90;;;;;;4999466;28;22619;-45
2022/03/14 00:42:04;;;;;;;8.03;5.20;;;7.10;99.90;;;;;;4997244;28;20347;-45
2022/03/14 00:44:31;;;;;;;8.57;5.73;;;7.20;99.90;;;;;;4990845;28;20491;-46
2022/03/14 00:46:59;;;;;;;7.20;4.83;;;7.10;99.90;;;;;;5001154;28;20474;-45
2022/03/14 00:49:27;;;;;;;7.53;5.30;;;7.10;99.90;;;;;;4996006;28;20286;-45
2022/03/14 00:51:53;;;;;;;8.10;5.47;;;7.00;99.90;;;;;;5009640;28;20456;-44
2022/03/14 00:54:20;;;;;;;8.63;5.83;;;7.00;99.90;;;;;;4996114;28;20285;-45
2022/03/14 00:56:47;;;;;;;9.43;4.93;;;6.90;99.90;;;;;;5008662;28;20207;-45
2022/03/14 00:59:14;;;;;;;7.13;4.63;;;6.90;99.90;;;;;;5016653;28;20298;-45
2022/03/14 01:01:41;;;;;;;11.17;5.73;;;6.90;99.90;;;;;;4970496;28;20559;-45
2022/03/14 01:04:09;;;;;;;11.17;5.30;;;6.80;99.90;;;;;;5002941;28;20286;-45
2022/03/14 01:06:36;;;;;;;6.50;5.03;;;6.80;99.90;;;;;;5015100;28;20481;-45
2022/03/14 01:09:03;;;;;;;7.87;5.40;;;6.80;99.90;;;;;;4998477;28;20221;-45
2022/03/14 01:11:30;;;;;;;8.93;5.93;;;6.70;99.90;;;;;;5002034;28;20210;-45
2022/03/14 01:13:57;;;;;;;6.73;5.37;;;6.80;99.90;;;;;;4999601;28;20234;-47
2022/03/14 01:16:24;;;;;;;8.20;5.57;;;6.70;99.90;;;;;;4986772;28;20205;-44
2022/03/14 01:18:51;;;;;;;7.30;5.40;;;6.70;99.90;;;;;;5006574;28;20244;-46
2022/03/14 01:21:19;;;;;;;7.17;4.80;;;6.80;99.90;;;;;;5012298;28;20317;-44
2022/03/14 01:23:46;;;;;;;8.97;5.57;;;6.70;99.90;;;;;;5007240;28;20324;-44
2022/03/14 01:26:13;;;;;;;7.77;5.57;;;6.70;99.90;;;;;;5000209;28;20225;-45
2022/03/14 01:28:39;;;;;;;7.03;5.47;;;6.60;99.90;;;;;;4999549;28;20454;-45
2022/03/14 01:31:07;;;;;;;9.23;5.83;;;6.60;99.90;;;;;;4981275;28;20323;-46
2022/03/14 01:33:34;;;;;;;7.87;5.07;;;6.60;99.90;;;;;;5003011;28;20457;-45
2022/03/14 01:36:01;;;;;;;13.43;5.77;;;6.60;99.90;;;;;;5008362;28;20204;-46
2022/03/14 01:38:29;;;;;;;8.13;4.83;;;6.50;99.90;;;;;;5005534;28;20409;-45
2022/03/14 01:40:56;;;;;;;7.80;5.50;;;6.50;99.90;;;;;;5001472;28;20214;-46
2022/03/14 01:43:24;;;;;;;7.73;4.77;;;6.40;99.90;;;;;;5004943;28;20634;-46
2022/03/14 01:45:51;;;;;;;8.20;5.60;;;6.50;99.90;;;;;;5021317;28;20233;-46
2022/03/14 01:48:19;;;;;;;9.13;5.43;;;6.50;99.90;;;;;;4977199;28;20470;-46
2022/03/14 01:50:46;;;;;;;9.10;4.90;;;6.50;99.90;;;;;;5006262;28;20616;-45
2022/03/14 01:53:13;;;;;;;9.67;5.37;;;6.50;99.90;;;;;;5010061;28;20296;-45
2022/03/14 01:55:42;;;;;;;10.80;5.60;;;6.50;99.90;;;;;;4999696;28;20213;-45
2022/03/14 01:58:09;;;;;;;9.23;5.27;;;6.50;99.90;;;;;;4993296;28;20206;-45
2022/03/14 02:00:36;;;;;;;8.13;5.47;;;6.50;99.90;;;;;;5005804;28;20985;-45
2022/03/14 02:03:03;;;;;;;8.40;5.60;;;6.50;99.90;;;;;;4983186;28;20348;-45
2022/03/14 02:05:37;;;;;;;8.10;5.17;;;6.50;99.90;;;;;;5003927;28;20204;-44
2022/03/14 02:08:05;;;;;;;8.07;5.27;;;6.50;99.90;;;;;;4992363;28;20424;-45
2022/03/14 02:10:34;;;;;;;8.37;5.57;;;6.60;99.90;;;;;;5008354;28;20212;-45
2022/03/14 02:13:06;;;;;;;8.47;5.93;;;6.60;99.90;;;;;;5005118;28;20232;-45
2022/03/14 02:15:34;;;;;;;8.87;5.63;;;6.60;99.90;;;;;;5003836;28;20544;-44
2022/03/14 02:18:01;;;;;;;11.53;5.70;;;6.70;99.90;;;;;;4988721;28;20259;-45
2022/03/14 02:20:29;;;;;;;8.20;6.03;;;6.70;99.90;;;;;;5001564;28;20202;-44
2022/03/14 02:22:57;;;;;;;8.67;5.13;;;6.70;99.90;;;;;;4995959;28;20451;-45
2022/03/14 02:25:23;;;;;;;10.53;6.23;;;6.70;99.90;;;;;;5004060;28;20339;-45
2022/03/14 02:27:51;;;;;;;7.93;5.43;;;6.70;99.90;;;;;;5004264;28;20541;-45
2022/03/14 02:30:18;;;;;;;8.87;5.13;;;6.60;99.90;;;;;;4998733;28;20591;-45
2022/03/14 02:32:46;;;;;;;9.37;5.97;;;6.60;99.90;;;;;;5002317;28;20363;-44
2022/03/14 02:35:13;;;;;;;7.57;5.07;;;6.70;99.90;;;;;;4982659;28;20311;-45
2022/03/14 02:37:44;;;;;;;8.00;5.50;;;6.70;99.90;;;;;;4998385;28;20206;-45
2022/03/14 02:40:11;;;;;;;8.90;5.07;;;6.70;99.90;;;;;;5001471;28;20636;-44
2022/03/14 02:42:38;;;;;;;8.10;5.33;;;6.60;99.90;;;;;;4991184;28;20636;-45
2022/03/14 02:45:06;;;;;;;9.23;5.23;;;6.60;99.90;;;;;;5011474;28;20283;-45
2022/03/14 02:47:33;;;;;;;9.70;5.77;;;6.60;99.90;;;;;;4998820;28;20234;-45
2022/03/14 02:50:00;;;;;;;7.60;5.70;;;6.60;99.90;;;;;;4988031;28;20224;-45
2022/03/14 02:52:27;;;;;;;7.87;5.70;;;6.60;99.90;;;;;;5004874;28;20471;-45
2022/03/14 02:54:55;;;;;;;6.80;5.30;;;6.50;99.90;;;;;;5002576;28;20211;-45
2022/03/14 02:57:22;;;;;;;8.90;5.80;;;6.50;99.90;;;;;;4994736;28;20251;-45
2022/03/14 02:59:49;;;;;;;10.50;5.83;;;6.50;99.90;;;;;;5003241;28;21023;-44
2022/03/14 03:02:18;;;;;;;7.37;5.33;;;6.50;99.90;;;;;;5016671;28;20230;-46
2022/03/14 03:04:45;;;;;;;11.77;6.20;;;6.50;99.90;;;;;;4969947;28;20349;-46
2022/03/14 03:07:12;;;;;;;7.03;5.50;;;6.50;99.90;;;;;;5020476;28;20236;-47
2022/03/14 03:09:39;;;;;;;8.40;5.57;;;6.50;99.90;;;;;;4991292;28;20248;-49
2022/03/14 03:12:13;;;;;;;7.73;5.23;;;6.50;99.90;;;;;;5003149;28;20234;-46
2022/03/14 03:14:40;;;;;;;11.30;6.10;;;6.50;99.90;;;;;;5013549;28;20233;-43
2022/03/14 03:17:08;;;;;;;8.07;5.90;;;6.50;99.90;;;;;;4994500;28;20402;-44
2022/03/14 03:19:35;;;;;;;7.67;5.63;;;6.50;99.90;;;;;;5004769;28;20563;-47
2022/03/14 03:22:02;;;;;;;8.23;5.70;;;6.50;99.90;;;;;;4998761;28;20232;-43
2022/03/14 03:24:28;;;;;;;9.47;5.67;;;6.40;99.90;;;;;;5002598;28;20500;-44
2022/03/14 03:26:56;;;;;;;8.50;5.43;;;6.40;99.90;;;;;;5002959;28;20306;-48
2022/03/14 03:29:24;;;;;;;8.40;5.97;;;6.50;99.90;;;;;;5001348;28;20298;-44
2022/03/14 03:31:51;;;;;;;8.70;5.83;;;6.50;99.90;;;;;;5002093;28;20240;-48
2022/03/14 03:34:18;;;;;;;9.37;5.80;;;6.50;99.90;;;;;;5001906;28;20821;-49
2022/03/14 03:36:44;;;;;;;7.90;5.40;;;6.50;99.90;;;;;;4995603;28;20313;-44
2022/03/14 03:39:11;;;;;;;7.23;5.80;;;6.50;99.90;;;;;;4994999;28;20423;-44
2022/03/14 03:41:39;;;;;;;8.73;6.00;;;6.50;99.90;;;;;;5001964;28;20392;-45
2022/03/14 03:44:06;;;;;;;10.30;5.47;;;6.40;99.90;;;;;;5005800;28;20320;-45
2022/03/14 03:46:34;;;;;;;9.00;6.50;;;6.40;99.90;;;;;;4997069;28;20259;-45
2022/03/14 03:49:01;;;;;;;8.20;5.73;;;6.40;99.90;;;;;;4994151;28;20711;-45
2022/03/14 03:51:28;;;;;;;8.90;5.80;;;6.40;99.90;;;;;;4996054;28;20448;-45
2022/03/14 03:53:55;;;;;;;8.63;5.90;;;6.40;99.90;;;;;;5003080;28;20256;-46
2022/03/14 03:56:22;;;;;;;8.80;6.10;;;6.30;99.90;;;;;;4992593;28;20289;-45
2022/03/14 03:58:49;;;;;;;7.67;4.97;;;6.30;99.90;;;;;;5012716;28;20256;-46
2022/03/14 04:01:21;;;;;;;7.90;5.77;;;6.30;99.90;;;;;;4988858;28;20680;-46
2022/03/14 04:03:54;;;;;;;9.40;5.50;;;6.30;99.90;;;;;;5002435;28;20336;-49
2022/03/14 04:06:21;;;;;;;10.23;5.47;;;6.30;99.90;;;;;;4990699;28;20739;-46
2022/03/14 04:08:48;;;;;;;9.47;5.60;;;6.30;99.90;;;;;;5002698;28;20223;-48
2022/03/14 04:11:16;;;;;;;8.33;5.60;;;6.30;99.90;;;;;;5005621;28;20314;-44
2022/03/14 04:13:43;;;;;;;10.10;5.87;;;6.30;99.90;;;;;;4994869;28;20488;-47
2022/03/14 04:16:10;;;;;;;9.20;5.70;;;6.30;99.90;;;;;;5014688;28;20420;-43
2022/03/14 04:18:37;;;;;;;9.13;6.23;;;6.30;99.90;;;;;;5016771;28;20236;-48
2022/03/14 04:21:05;;;;;;;14.00;6.40;;;6.40;99.90;;;;;;4983678;28;20310;-47
2022/03/14 04:23:32;;;;;;;13.90;5.77;;;6.40;99.90;;;;;;4998371;28;20304;-45
2022/03/14 04:25:59;;;;;;;7.73;5.50;;;6.40;99.90;;;;;;4990459;28;20403;-49
2022/03/14 04:28:26;;;;;;;8.87;5.60;;;6.30;99.90;;;;;;5003760;28;20301;-46
2022/03/14 04:30:53;;;;;;;8.83;5.53;;;6.40;99.90;;;;;;5003266;28;20208;-49
2022/03/14 04:33:20;;;;;;;6.97;5.60;;;6.30;99.90;;;;;;5001898;28;20236;-46
2022/03/14 04:35:47;;;;;;;8.37;5.80;;;6.30;99.90;;;;;;5000899;28;20295;-46
2022/03/14 04:38:16;;;;;;;10.27;6.13;;;6.30;99.90;;;;;;4994709;28;20213;-45
2022/03/14 04:40:43;;;;;;;10.27;5.77;;;6.30;99.90;;;;;;4990736;28;20451;-46
2022/03/14 04:43:11;;;;;;;7.97;5.87;;;6.30;99.90;;;;;;4987560;28;20429;-46
2022/03/14 04:45:39;;;;;;;11.03;6.00;;;6.30;99.90;;;;;;5002308;28;20215;-47
2022/03/14 04:48:06;;;;;;;8.07;5.83;;;6.30;99.90;;;;;;5004695;28;20227;-45
2022/03/14 04:50:35;;;;;;;8.80;6.10;;;6.30;99.90;;;;;;5005131;28;20211;-47
2022/03/14 04:53:02;;;;;;;9.43;5.83;;;6.30;99.90;;;;;;4999759;28;20439;-46
2022/03/14 04:55:31;;;;;;;9.37;5.93;;;6.30;99.90;;;;;;4996186;28;20285;-46
2022/03/14 04:57:58;;;;;;;13.37;5.83;;;6.30;99.90;;;;;;5000967;28;20450;-44
2022/03/14 05:00:24;;;;;;;9.17;6.17;;;6.30;99.90;;;;;;5015819;28;20279;-46
2022/03/14 05:02:51;;;;;;;10.83;6.07;;;6.20;99.90;;;;;;4997729;28;20640;-45
2022/03/14 05:05:18;;;;;;;8.40;5.87;;;6.20;99.90;;;;;;5013281;28;20215;-45
2022/03/14 05:07:45;;;;;;;8.30;5.90;;;6.20;99.90;;;;;;4975476;28;27478;-45
2022/03/14 05:10:12;;;;;;;9.57;6.27;;;6.20;99.90;;;;;;5006644;28;20609;-46
2022/03/14 05:12:41;;;;;;;10.30;6.17;;;6.20;99.90;;;;;;5004256;28;20695;-44
2022/03/14 05:15:08;;;;;;;10.90;5.80;;;6.20;99.90;;;;;;5014680;28;20236;-45
2022/03/14 05:17:36;;;;;;;11.87;5.90;;;6.20;99.90;;;;;;5002340;28;20275;-44
2022/03/14 05:20:04;;;;;;;9.37;6.27;;;6.20;99.90;;;;;;5016932;28;20215;-46
2022/03/14 05:22:30;;;;;;;11.20;6.53;;;6.20;99.90;;;;;;5018297;28;20563;-45
2022/03/14 05:24:57;;;;;;;7.07;5.43;;;6.20;99.90;;;;;;4980161;28;20804;-44
2022/03/14 05:27:24;;;;;;;9.70;5.93;;;6.20;99.90;;;;;;4995569;28;20568;-46
2022/03/14 05:29:53;;;;;;;8.23;5.83;;;6.10;99.90;;;;;;4997670;28;20241;-46
2022/03/14 05:32:20;;;;;;;10.17;6.20;;;6.10;99.90;;;;;;5000409;28;20237;-46
2022/03/14 05:34:47;;;;;;;8.97;6.23;;;6.10;99.90;;;;;;5003643;28;20600;-46
2022/03/14 05:37:14;;;;;;;7.73;5.63;;;6.10;99.90;;;;;;5014487;28;20512;-46
2022/03/14 05:39:40;;;;;;;9.13;5.77;;;6.10;99.90;;;;;;4979007;28;20255;-49
2022/03/14 05:42:08;;;;;;;8.17;5.73;;;6.10;99.90;;;;;;5015134;28;20237;-48
2022/03/14 05:44:34;;;;;;;9.13;5.70;;;6.10;99.90;;;;;;4995730;28;20283;-49
2022/03/14 05:47:03;;;;;;;12.53;6.73;;;6.10;99.90;;;;;;5010167;28;20305;-46
2022/03/14 05:49:30;;;;;;;12.37;5.80;;;6.10;99.90;;;;;;5017851;28;20206;-49
2022/03/14 05:51:57;;;;;;;9.00;6.03;;;5.80;99.90;;;;;;5000883;28;20497;-45
2022/03/14 05:54:23;;;;;;;9.83;6.10;;;6.00;99.90;;;;;;5000697;28;20523;-49
2022/03/14 05:56:50;;;;;;;9.10;5.77;;;6.00;99.90;;;;;;4991570;28;20219;-48
2022/03/14 05:59:17;;;;;;;10.17;6.47;;;6.00;99.90;;;;;;5005801;28;20283;-46
2022/03/14 06:01:44;;;;;;;11.90;6.13;;;6.00;99.90;;;;;;4993321;28;20312;-46
2022/03/14 06:04:13;;;;;;;9.30;6.20;;;6.00;99.90;;;;;;5020238;28;20215;-47
2022/03/14 06:06:39;;;;;;;8.80;6.37;;;6.00;99.90;;;;;;4994942;28;20210;-49
2022/03/14 06:09:06;;;;;;;12.53;6.57;;;6.00;99.90;;;;;;4989348;28;20315;-44
2022/03/14 06:11:34;;;;;;;12.43;6.77;;;6.00;99.90;;;;;;4982522;28;20290;-46
2022/03/14 06:14:01;;;;;;;10.23;6.03;;;5.90;99.90;;;;;;4996103;28;20253;-46
2022/03/14 06:16:28;;;;;;;9.47;6.33;;;5.90;99.90;;;;;;4989386;28;20240;-45
2022/03/14 06:18:55;;;;;;;11.37;6.70;;;5.80;99.90;;;;;;5008236;28;20262;-45
2022/03/14 06:21:23;;;;;;;12.70;6.27;;;5.80;99.90;;;;;;4991045;28;20208;-44
2022/03/14 06:23:50;;;;;;;9.77;6.30;;;5.80;99.90;;;;;;5018317;28;20225;-45
2022/03/14 06:26:17;;;;;;;8.60;6.23;;;5.80;99.90;;;;;;4987528;28;20783;-45
2022/03/14 06:28:44;;;;;;;10.33;6.43;;;5.80;99.90;;;;;;5021908;28;20232;-45
2022/03/14 06:31:14;;;;;;;14.27;6.67;;;5.70;99.90;;;;;;5016637;28;20280;-44
2022/03/14 06:33:41;;;;;;;11.13;6.70;;;5.60;99.90;;;;;;5012070;28;20227;-45
2022/03/14 06:36:08;;;;;;;13.43;6.40;;;5.60;99.90;;;;;;5024064;28;20528;-45
2022/03/14 06:38:38;;;;;;;11.23;7.33;;;5.60;99.90;;;;;;5025472;28;20196;-44
2022/03/14 06:41:05;;;;;;;10.23;6.47;;;5.60;99.90;;;;;;5004884;28;20213;-45
2022/03/14 06:43:32;;;;;;;12.63;8.00;;;5.60;99.90;;;;;;5011814;28;20737;-44
2022/03/14 06:45:59;;;;;;;12.87;7.43;;;5.60;99.90;;;;;;5006930;28;20397;-45
2022/03/14 06:48:26;;;;;;;11.03;6.93;;;5.50;99.90;;;;;;4996772;28;20768;-44
2022/03/14 06:50:53;;;;;;;11.87;7.53;;;5.50;99.90;;;;;;5014984;28;20217;-45
2022/03/14 06:53:20;;;;;;;12.70;7.87;;;5.50;99.90;;;;;;5003257;28;20227;-45
2022/03/14 06:55:48;;;;;;;11.23;7.43;;;5.50;99.90;;;;;;5003143;28;20260;-45
2022/03/14 06:58:15;;;;;;;11.10;7.20;;;5.40;99.90;;;;;;5006501;28;20210;-45
2022/03/14 07:00:43;;;;;;;14.90;7.97;;;5.40;99.90;;;;;;5005050;28;20238;-45
2022/03/14 07:03:10;;;;;;;12.43;7.83;;;5.40;99.90;;;;;;5014907;28;20227;-46
2022/03/14 07:05:37;;;;;;;10.60;7.87;;;5.40;99.90;;;;;;5008297;28;20227;-45
2022/03/14 07:08:04;;;;;;;16.97;8.00;;;5.40;99.90;;;;;;5004772;28;20283;-46
2022/03/14 07:10:32;;;;;;;14.23;8.40;;;5.40;99.90;;;;;;5002795;28;20210;-46
2022/03/14 07:13:00;;;;;;;11.93;8.00;;;5.50;99.90;;;;;;5012670;28;20234;-45
2022/03/14 07:15:28;;;;;;;12.13;7.73;;;5.50;99.90;;;;;;5010395;28;20213;-47
2022/03/14 07:17:55;;;;;;;15.57;8.73;;;5.60;99.90;;;;;;5010336;28;20364;-45
2022/03/14 07:20:23;;;;;;;12.57;8.07;;;5.50;99.90;;;;;;5004340;28;20595;-47
2022/03/14 07:22:51;;;;;;;12.30;7.80;;;5.60;99.90;;;;;;5005265;28;20967;-45
2022/03/14 07:25:23;;;;;;;12.77;8.63;;;5.60;99.90;;;;;;5012262;28;20277;-44
2022/03/14 07:27:49;;;;;;;12.93;8.60;;;5.60;99.90;;;;;;5003349;28;20232;-45
2022/03/14 07:30:18;;;;;;;14.37;8.80;;;5.60;99.90;;;;;;5006871;28;20421;-44
2022/03/14 07:32:45;;;;;;;14.40;8.93;;;5.60;99.90;;;;;;5000877;28;20314;-45
2022/03/14 07:35:13;;;;;;;13.23;9.13;;;5.60;99.90;;;;;;5000800;28;20607;-45
2022/03/14 07:37:40;;;;;;;12.43;9.00;;;5.60;99.90;;;;;;4998876;28;20856;-44
2022/03/14 07:40:08;;;;;;;12.33;8.57;;;5.60;99.90;;;;;;5013396;28;20199;-46
2022/03/14 07:42:40;;;;;;;12.93;8.77;;;5.60;99.90;;;;;;4991374;28;20372;-48
2022/03/14 07:45:09;;;;;;;11.93;8.87;;;5.70;99.90;;;;;;5012128;28;20208;-45
2022/03/14 07:47:39;;;;;;;10.80;9.20;;;5.70;99.90;;;;;;4996266;28;20266;-45
2022/03/14 07:50:08;;;;;;;11.67;8.83;;;5.70;99.90;;;;;;5007098;28;20543;-46
2022/03/14 07:52:36;;;;;;;12.23;8.53;;;5.80;99.90;;;;;;5009895;28;20326;-44
2022/03/14 07:55:03;;;;;;;12.97;9.47;;;5.80;99.90;;;;;;5002392;28;20219;-46
2022/03/14 07:57:31;;;;;;;14.23;8.80;;;5.80;99.90;;;;;;4992747;28;20221;-44
2022/03/14 07:59:58;;;;;;;12.83;9.20;;;5.80;99.90;;;;;;5002929;28;20299;-46
2022/03/14 08:02:25;;;;;;;14.53;9.20;;;5.90;99.90;;;;;;4992951;28;22611;-46
2022/03/14 08:04:53;;;;;;;13.43;10.03;;;5.90;99.90;;;;;;4999920;28;20417;-46
2022/03/14 08:07:20;;;;;;;14.17;9.63;;;6.00;99.90;;;;;;5012530;28;20218;-47
2022/03/14 08:09:48;;;;;;;13.67;9.37;;;6.00;99.90;;;;;;5001496;28;20542;-45
2022/03/14 08:12:15;;;;;;;16.20;10.37;;;6.10;99.90;;;;;;5001447;28;20259;-47
2022/03/14 08:14:41;;;;;;;14.07;10.03;;;6.10;99.90;;;;;;4993746;28;20419;-44
2022/03/14 08:17:08;;;;;;;12.40;9.97;;;6.20;99.90;;;;;;5014518;28;20289;-45
2022/03/14 08:19:35;;;;;;;13.77;10.07;;;6.20;99.90;;;;;;5003637;28;20497;-45
2022/03/14 08:22:04;;;;;;;16.73;9.77;;;6.20;99.90;;;;;;5001055;28;20469;-45
2022/03/14 08:24:32;;;;;;;13.50;9.93;;;6.20;99.90;;;;;;4977109;28;20366;-45
2022/03/14 08:26:58;;;;;;;13.83;9.67;;;6.30;99.90;;;;;;5012476;28;20211;-46
2022/03/14 08:29:25;;;;;;;12.93;10.33;;;6.40;99.90;;;;;;4982106;28;20859;-46
2022/03/14 08:31:52;;;;;;;14.03;10.07;;;6.40;99.90;;;;;;5006337;28;20284;-45
2022/03/14 08:34:20;;;;;;;13.97;9.83;;;6.40;99.90;;;;;;5014089;28;20502;-46
2022/03/14 08:36:47;;;;;;;14.17;10.17;;;6.50;99.90;;;;;;5011214;28;20214;-46
2022/03/14 08:39:15;;;;;;;12.17;9.73;;;6.50;99.90;;;;;;5019575;28;20525;-48
2022/03/14 08:41:42;;;;;;;14.03;9.97;;;6.50;99.90;;;;;;5020690;28;20266;-49
2022/03/14 08:44:10;;;;;;;14.80;9.20;;;6.50;99.90;;;;;;4995920;28;20289;-50
2022/03/14 08:46:38;;;;;;;16.70;10.60;;;6.60;99.90;;;;;;5008680;28;20916;-45
2022/03/14 08:49:05;;;;;;;13.37;9.50;;;6.60;99.90;;;;;;5008828;28;20239;-44
2022/03/14 08:51:33;;;;;;;12.67;9.33;;;6.70;99.90;;;;;;5007682;28;20691;-46
2022/03/14 08:54:00;;;;;;;14.77;10.00;;;6.70;99.90;;;;;;5020585;28;20602;-45
2022/03/14 08:56:28;;;;;;;15.67;11.20;;;6.80;99.90;;;;;;5019341;28;20378;-46
2022/03/14 08:58:55;;;;;;;14.40;10.27;;;6.80;99.90;;;;;;5023623;28;20270;-46
2022/03/14 09:01:21;;;;;;;16.43;11.30;;;6.80;99.90;;;;;;4978109;28;20439;-45
2022/03/14 09:03:48;;;;;;;13.20;10.13;;;6.90;99.90;;;;;;5019415;28;20305;-46
2022/03/14 09:06:17;;;;;;;13.93;10.00;;;6.90;99.90;;;;;;4995100;28;20236;-44
2022/03/14 09:08:44;;;;;;;16.93;10.57;;;7.00;99.90;;;;;;5025388;28;20229;-46
2022/03/14 09:11:11;;;;;;;16.80;10.40;;;7.00;99.90;;;;;;5022133;28;20295;-44
2022/03/14 09:13:39;;;;;;;13.20;10.10;;;7.10;99.90;;;;;;5018403;28;21367;-46
2022/03/14 09:16:08;;;;;;;14.60;10.27;;;7.10;99.90;;;;;;5002523;28;20211;-45
2022/03/14 09:18:36;;;;;;;15.47;10.40;;;7.20;99.90;;;;;;5012024;28;20432;-46
2022/03/14 09:21:03;;;;;;;14.27;10.53;;;7.20;99.90;;;;;;5008533;28;20221;-45
2022/03/14 09:23:30;;;;;;;13.73;10.03;;;7.30;99.90;;;;;;5009979;28;20377;-45
2022/03/14 09:25:58;;;;;;;18.90;11.33;;;7.40;99.90;;;;;;5019006;28;20210;-46
2022/03/14 09:28:25;;;;;;;13.73;10.50;;;7.40;99.90;;;;;;5019089;28;20264;-46
2022/03/14 09:30:53;;;;;;;16.70;11.10;;;7.50;99.90;;;;;;5006430;28;20214;-46
2022/03/14 09:33:21;;;;;;;14.33;10.90;;;7.60;99.90;;;;;;5006474;28;20245;-46
2022/03/14 09:35:48;;;;;;;14.40;10.93;;;7.60;99.90;;;;;;5009460;28;20265;-46
2022/03/14 09:38:17;;;;;;;15.00;10.90;;;7.70;99.90;;;;;;5011712;28;20217;-45
2022/03/14 09:40:46;;;;;;;15.73;11.40;;;7.70;99.90;;;;;;5022071;28;20236;-46
2022/03/14 09:43:15;;;;;;;18.23;11.50;;;7.80;99.90;;;;;;5015416;28;20550;-45
2022/03/14 09:45:46;;;;;;;16.17;11.93;;;7.80;99.90;;;;;;5000939;28;20228;-45
2022/03/14 09:48:15;;;;;;;18.17;12.50;;;7.90;99.90;;;;;;5008992;28;20269;-45
2022/03/14 09:50:45;;;;;;;15.67;12.30;;;8.00;99.90;;;;;;5008397;28;20203;-45
2022/03/14 09:53:14;;;;;;;16.53;12.33;;;8.00;99.90;;;;;;5002229;28;20592;-47
2022/03/14 09:55:46;;;;;;;16.50;12.63;;;8.00;99.90;;;;;;5013514;28;20198;-45
2022/03/14 09:58:15;;;;;;;16.97;12.27;;;8.10;99.90;;;;;;5007760;28;20206;-47
2022/03/14 10:00:43;;;;;;;18.40;12.60;;;8.10;99.90;;;;;;5019116;28;20286;-45
2022/03/14 10:03:10;;;;;;;16.73;11.83;;;8.20;99.90;;;;;;5001206;28;20235;-47
2022/03/14 10:05:38;;;;;;;19.40;13.03;;;8.20;99.90;;;;;;5017983;28;20340;-45
2022/03/14 10:08:06;;;;;;;16.00;12.03;;;8.20;99.90;;;;;;5000757;28;20284;-46
2022/03/14 10:10:37;;;;;;;16.97;12.53;;;8.20;99.90;;;;;;5026364;28;20406;-45
2022/03/14 10:13:06;;;;;;;16.07;12.37;;;8.30;99.90;;;;;;5020739;28;20323;-47
2022/03/14 10:15:34;;;;;;;16.97;12.67;;;8.20;99.90;;;;;;5007674;28;20522;-45
2022/03/14 10:18:02;;;;;;;16.43;11.93;;;8.20;99.90;;;;;;5001051;28;20419;-47
2022/03/14 10:20:29;;;;;;;16.50;12.10;;;8.30;99.90;;;;;;5015786;28;20285;-45
2022/03/14 10:23:00;;;;;;;19.70;13.00;;;8.30;99.90;;;;;;5008216;28;20544;-46
2022/03/14 10:25:26;;;;;;;17.00;12.80;;;8.30;99.90;;;;;;5009115;28;20309;-46
2022/03/14 10:27:56;;;;;;;16.67;13.07;;;8.30;99.90;;;;;;5020510;28;20212;-46
2022/03/14 10:30:26;;;;;;;19.90;13.37;;;8.30;99.90;;;;;;5009486;28;20446;-45
2022/03/14 10:33:01;;;;;;;16.70;12.80;;;8.30;99.90;;;;;;5001501;28;20581;-45
2022/03/14 10:35:35;;;;;;;20.93;13.40;;;8.40;99.90;;;;;;5008231;28;20209;-46
2022/03/14 10:38:05;;;;;;;19.03;13.40;;;8.50;99.90;;;;;;5014372;28;20206;-46
2022/03/14 10:40:33;;;;;;;17.17;11.83;;;8.60;99.90;;;;;;5012720;28;20474;-45
2022/03/14 10:43:00;;;;;;;15.37;11.73;;;8.60;99.90;;;;;;5021127;28;20297;-47
2022/03/14 10:45:30;;;;;;;15.77;11.37;;;8.60;99.90;;;;;;5014768;28;20210;-47
2022/03/14 10:47:58;;;;;;;15.13;10.50;;;8.70;99.90;;;;;;5000380;28;20206;-46
2022/03/14 10:50:30;;;;;;;14.57;10.20;;;8.70;99.90;;;;;;5011039;28;20234;-46
2022/03/14 10:53:07;;;;;;;14.50;10.10;;;8.70;99.90;;;;;;5012541;28;20249;-47
2022/03/14 10:55:39;;;;;;;13.70;9.90;;;8.70;99.90;;;;;;5007468;28;20218;-46
2022/03/14 10:58:14;;;;;;;12.07;9.43;;;8.80;99.90;;;;;;5022450;28;20534;-45
2022/03/14 11:00:52;;;;;;;12.10;8.80;;;8.80;99.90;;;;;;5005808;28;20833;-45
2022/03/14 11:03:26;;;;;;;10.73;8.03;;;8.80;99.90;;;;;;5007795;28;20416;-47
2022/03/14 11:05:57;;;;;;;10.57;7.63;;;8.80;99.90;;;;;;5012234;28;20636;-47
2022/03/14 11:08:31;;;;;;;8.83;7.00;;;8.80;99.90;;;;;;5013771;28;20205;-45
2022/03/14 11:10:59;;;;;;;9.27;6.77;;;8.80;99.90;;;;;;5008149;28;20212;-46
2022/03/14 11:13:26;;;;;;;9.07;6.57;;;8.80;99.90;;;;;;5013607;28;20232;-45
2022/03/14 11:15:53;;;;;;;8.47;6.53;;;8.90;99.90;;;;;;5016472;28;20471;-46
2022/03/14 11:18:22;;;;;;;9.57;6.37;;;8.90;99.90;;;;;;5003317;28;20467;-45
2022/03/14 11:20:49;;;;;;;10.20;6.30;;;8.90;99.90;;;;;;4999286;28;20264;-46
2022/03/14 11:23:16;;;;;;;11.17;6.50;;;8.90;99.90;;;;;;5018110;28;20938;-46
2022/03/14 11:25:45;;;;;;;7.10;5.70;;;8.90;99.90;;;;;;5005538;28;20525;-46
2022/03/14 11:28:16;;;;;;;7.30;6.00;;;8.90;99.90;;;;;;5015495;28;20217;-46
2022/03/14 11:30:49;;;;;;;9.10;5.80;;;8.90;99.90;;;;;;5002831;28;20663;-46
2022/03/14 11:33:17;;;;;;;8.00;6.20;;;8.90;99.90;;;;;;5011060;28;20233;-45
2022/03/14 11:35:44;;;;;;;7.73;5.57;;;8.90;99.90;;;;;;4995010;28;20740;-45
2022/03/14 11:38:12;;;;;;;6.80;5.63;;;9.00;99.90;;;;;;5022867;28;20476;-45
2022/03/14 11:40:39;;;;;;;5.97;5.03;;;9.00;99.90;;;;;;5003201;28;20519;-45
2022/03/14 11:43:09;;;;;;;5.53;5.00;;;9.00;99.90;;;;;;5015000;28;20317;-45
2022/03/14 11:45:37;;;;;;;6.90;5.10;;;9.00;99.90;;;;;;5010233;28;20394;-46
2022/03/14 11:48:05;;;;;;;6.97;5.30;;;9.00;99.90;;;;;;5004575;28;20712;-46
2022/03/14 11:50:43;;;;;;;7.27;5.80;;;9.10;99.90;;;;;;4981859;28;20331;-46
2022/03/14 11:53:10;;;;;;;6.93;5.23;;;9.10;99.90;;;;;;4994776;28;20401;-49
2022/03/14 11:55:51;;;;;;;5.90;4.50;;;9.20;99.90;;;;;;4989624;28;20212;-47
2022/03/14 11:58:38;;;;;;;4.80;3.70;;;9.20;99.90;;;;;;5005653;28;20358;-47
2022/03/14 12:01:16;;;;;;;5.67;3.77;;;9.20;99.90;;;;;;5002963;28;20484;-48
2022/03/14 12:03:47;;;;;;;5.07;3.43;;;9.20;99.90;;;;;;4999924;28;20813;-43
2022/03/14 12:06:14;;;;;;;5.03;3.70;;;9.20;99.90;;;;;;4994390;28;20236;-47
2022/03/14 12:08:55;;;;;;;3.93;3.13;;;9.30;99.90;;;;;;4995186;28;20535;-47
2022/03/14 12:11:41;;;;;;;6.07;3.30;;;9.30;99.90;;;;;;5011578;28;20281;-50
2022/03/14 12:14:14;;;;;;;3.90;3.10;;;9.30;99.90;;;;;;5010568;28;20483;-44
2022/03/14 12:16:43;;;;;;;5.07;3.40;;;9.20;99.90;;;;;;4998993;28;20202;-47
2022/03/14 12:19:31;;;;;;;4.30;3.80;;;9.20;99.90;;;;;;4996206;28;20206;-46
2022/03/14 12:22:01;;;;;;;4.27;3.40;;;9.30;99.90;;;;;;4985428;28;20522;-45
2022/03/14 12:24:44;;;;;;;4.50;3.23;;;9.30;99.90;;;;;;4983268;28;20285;-46
2022/03/14 12:27:15;;;;;;;3.87;3.47;;;9.30;99.90;;;;;;5001105;28;20215;-45
2022/03/14 12:29:44;;;;;;;4.13;3.27;;;9.30;99.90;;;;;;5015112;28;20433;-45
2022/03/14 12:32:34;;;;;;;4.80;3.67;;;9.30;99.90;;;;;;5006338;28;20264;-45
2022/03/14 12:35:04;;;;;;;4.93;3.97;;;9.30;99.90;;;;;;5001585;28;20209;-49
2022/03/14 12:37:43;;;;;;;5.43;3.80;;;9.30;99.90;;;;;;4993742;28;20229;-47
2022/03/14 12:40:15;;;;;;;8.10;4.03;;;9.30;99.90;;;;;;4998984;28;20223;-46
2022/03/14 12:42:43;;;;;;;7.27;4.00;;;9.40;99.90;;;;;;5007156;28;20257;-47
2022/03/14 12:45:22;;;;;;;4.63;3.70;;;9.40;99.90;;;;;;5012408;28;20415;-46
2022/03/14 12:47:51;;;;;;;6.50;4.10;;;9.30;99.90;;;;;;5008372;28;20209;-49
2022/03/14 12:51:02;;;;;;;6.53;4.57;;;9.30;99.90;;;;;;5003359;28;20221;-46
2022/03/14 12:53:46;;;;;;;6.20;4.30;;;9.30;99.90;;;;;;4993883;28;20257;-46
2022/03/14 12:56:20;;;;;;;5.97;4.93;;;9.40;99.90;;;;;;5002488;28;20324;-46